»·PEaware :: N1980 L52-L88

N1980 :: L52-L88

FLIGHT INFORMATION

Flight Status: Arrived
Operator: Privately registered:
United States
More flights under this callsign
Pilot: Max M. (20768)
Aircraft: Unknown
(DA62)
More flights by this aircraft type
Origin: L52 Oceano Co
United States
Destination: L88 New Cuyama
United States
More flights between these airports :: More routes between these airports
Route: DCT
File this flight plan on PilotEdge
Remarks:
Altitude:
(Current/Filed)
1,500ft
Speed:
(Current/Filed)
115kts
Departed: 10-Jan-19 08:35 PM
Arrived: 10-Jan-19 09:02 PM
Distance/Time
Traveled:
47nm/0:27
Distance/Time
To Go:
Arrived

Flight Plot

Page will automatically refresh every two minutes.


Map Options




Map Legend


Flown Route
Filed Route
Departure Airport
Arrival Airport
Navaid (VOR, NDB)
Fix

Horizontal Profiles

Position Reports

Time Latitude Longitude Heading Altitude Ground
Speed
10-Jan-19 20:20 35.103553 -120.624283 214 19ft 0kts
10-Jan-19 20:21 35.103553 -120.624283 214 19ft 0kts
10-Jan-19 20:22 35.103553 -120.624283 214 19ft 0kts
10-Jan-19 20:23 35.103553 -120.624283 214 19ft 0kts
10-Jan-19 20:24 35.103553 -120.624283 214 19ft 0kts
10-Jan-19 20:25 35.103553 -120.624283 214 19ft 0kts
10-Jan-19 20:26 35.103553 -120.624283 214 19ft 0kts
10-Jan-19 20:27 35.103553 -120.624283 214 19ft 0kts
10-Jan-19 20:28 35.103553 -120.624283 214 19ft 0kts
10-Jan-19 20:30 35.103553 -120.624283 214 19ft 0kts
10-Jan-19 20:31 35.103553 -120.624283 214 19ft 0kts
10-Jan-19 20:32 35.103463 -120.625052 303 19ft 0kts
10-Jan-19 20:33 35.103244 -120.625301 172 19ft 2kts
10-Jan-19 20:34 35.099760 -120.619273 128 58ft 83kts
10-Jan-19 20:35 35.086207 -120.588863 78 929ft 117kts
10-Jan-19 20:36 35.082501 -120.548763 102 1846ft 122kts
10-Jan-19 20:37 35.074438 -120.508341 102 2746ft 124kts
10-Jan-19 20:38 35.066581 -120.467027 102 3652ft 126kts
10-Jan-19 20:39 35.059186 -120.424775 102 4558ft 126kts
10-Jan-19 20:40 35.052824 -120.384229 102 5444ft 118kts
10-Jan-19 20:41 35.047492 -120.345434 102 6335ft 114kts
10-Jan-19 20:42 35.043021 -120.307938 102 7211ft 110kts
10-Jan-19 20:43 35.038377 -120.267149 102 7605ft 146kts
10-Jan-19 20:44 35.031132 -120.213448 102 7592ft 167kts
10-Jan-19 20:45 35.023074 -120.157055 102 7590ft 169kts
10-Jan-19 20:46 35.014932 -120.100150 102 7590ft 170kts
10-Jan-19 20:47 35.006791 -120.043239 102 7590ft 170kts
10-Jan-19 20:48 34.996515 -119.987022 108 7586ft 170kts
10-Jan-19 20:49 34.983164 -119.929644 108 6901ft 182kts
10-Jan-19 20:50 34.968416 -119.868663 107 5712ft 190kts
10-Jan-19 20:51 34.952742 -119.807173 107 4516ft 189kts
10-Jan-19 20:52 34.937301 -119.749335 104 3287ft 160kts
10-Jan-19 20:53 34.936975 -119.709623 81 2970ft 111kts
10-Jan-19 20:54 34.933133 -119.677690 122 2364ft 73kts
10-Jan-19 20:55 34.941927 -119.661764 307 2429ft 107kts
10-Jan-19 20:56 34.936919 -119.698885 239 2706ft 95kts
10-Jan-19 20:57 34.915748 -119.728693 238 2913ft 129kts
10-Jan-19 20:58 34.884564 -119.730298 124 3405ft 156kts
10-Jan-19 20:59 34.905846 -119.688635 42 3052ft 162kts
10-Jan-19 21:00 34.933819 -119.673173 325 2507ft 100kts
10-Jan-19 21:01 34.941370 -119.688907 282 2167ft 21kts
10-Jan-19 21:02 34.942388 -119.690884 22 2158ft 0kts
10-Jan-19 21:03 34.942388 -119.690884 22 2158ft 0kts
10-Jan-19 21:04 34.942388 -119.690884 22 2158ft 0kts
10-Jan-19 21:05 34.942388 -119.690884 22 2158ft 0kts
10-Jan-19 21:06 34.942392 -119.690882 22 2158ft 0kts
10-Jan-19 21:07 34.942392 -119.690882 22 2158ft 0kts
10-Jan-19 21:08 34.942392 -119.690882 22 2158ft 0kts
10-Jan-19 21:09 34.942392 -119.690882 22 2158ft 0kts
10-Jan-19 21:10 34.942392 -119.690882 22 2158ft 0kts
10-Jan-19 21:11 34.942392 -119.690882 22 2158ft 0kts
10-Jan-19 21:12 34.942392 -119.690882 22 2158ft 0kts
10-Jan-19 21:13 34.942392 -119.690882 22 2158ft 0kts
10-Jan-19 21:14 34.942392 -119.690882 22 2158ft 0kts
10-Jan-19 21:15 34.942392 -119.690882 22 2158ft 0kts

Navigation Log

Ident Type
Flight plan parsing failed, navigation log unavailable